Date,TemperatureHighF,TemperatureAvgF,TemperatureLowF,DewpointHighF,DewpointAvgF,DewpointLowF,HumidityHigh,HumidityAvg,HumidityLow,PressureMaxIn,PressureMinIn,WindSpeedMaxMPH,WindSpeedAvgMPH,GustSpeedMaxMPH,PrecipitationSumIn
2013-1-1,59,46,38,28,23,16,57,41,29,29.29,29.24,6,2,6,0.00
2013-1-2,60,46,38,30,21,14,48,37,29,29.26,29.18,7,2,7,0.00
2013-1-3,59,46,39,29,22,16,49,39,29,29.29,29.18,6,2,8,0.00
2013-1-4,58,47,40,30,26,19,53,43,32,29.32,29.24,8,2,8,0.00
2013-1-5,56,48,43,36,30,26,62,49,35,29.29,29.12,10,2,10,0.00
2013-1-6,55,49,45,38,35,28,66,58,40,29.20,29.12,9,2,9,0.28
2013-1-7,51,45,40,36,32,26,64,58,48,29.29,29.15,10,2,10,0.00
2013-1-8,60,49,43,36,32,28,66,53,34,29.26,29.18,8,1,8,0.00
2013-1-9,52,49,42,41,34,26,70,55,47,29.20,28.97,17,3,21,0.04
2013-1-10,55,44,37,30,24,16,61,46,30,29.18,29.06,8,2,8,0.00
2013-1-11,51,41,35,22,18,13,54,41,31,29.26,29.15,8,2,8,0.00
2013-1-12,49,38,32,20,14,7,51,36,31,29.26,29.15,9,2,9,0.00
2013-1-13,53,39,32,23,13,8,38,35,31,29.26,29.18,10,3,10,0.00
2013-1-14,54,41,29,24,14,5,35,33,30,29.41,29.20,8,2,8,0.00
2013-1-16,45,44,43,19,18,17,35,35,35,29.32,29.32,2,0,3,0.00
2013-1-17,66,51,39,34,22,13,36,32,28,29.32,29.24,5,1,7,0.00
2013-1-18,70,54,44,37,24,16,34,31,27,29.29,29.20,5,1,8,0.00
2013-1-19,69,54,45,36,25,19,35,32,28,29.32,29.20,3,0,6,0.00
2013-1-20,66,53,44,34,24,16,35,32,28,29.26,29.18,5,1,8,0.00
2013-1-21,66,52,44,33,24,16,37,33,30,29.24,29.15,5,1,8,0.00
2013-1-22,72,55,44,38,26,16,36,32,29,29.20,29.09,7,1,9,0.00
2013-1-23,63,55,50,40,29,23,59,37,28,29.15,29.03,7,1,10,0.00
2013-1-24,60,56,52,46,43,34,74,62,45,29.24,29.09,6,0,8,0.16
2013-1-25,69,61,56,56,46,38,88,60,35,29.24,29.09,6,0,8,0.08
2013-1-26,58,54,46,54,38,25,92,58,32,29.09,29.00,13,4,15,0.00
2013-1-27,58,48,42,33,27,19,61,44,32,29.18,29.03,6,1,8,0.00
2013-1-28,60,48,37,28,22,13,50,37,29,29.26,29.12,6,2,9,0.00
2013-1-29,62,50,41,31,24,18,48,37,29,29.32,29.26,6,1,12,0.00
2013-1-30,62,52,43,31,27,22,49,39,31,29.35,29.26,7,1,10,0.00
2013-1-31,70,56,47,37,31,26,50,39,29,29.32,29.20,5,1,8,0.00
2013-2-1,71,57,47,37,29,20,40,34,29,29.26,29.18,5,1,7,0.00
2013-2-2,69,56,51,36,31,25,48,38,30,29.29,29.24,5,1,6,0.00
2013-2-3,68,54,46,36,32,26,58,44,30,29.26,29.18,6,1,8,0.00
2013-2-4,65,55,48,35,32,29,50,42,30,29.20,29.09,6,1,12,0.00
2013-2-5,55,50,45,37,33,29,63,52,38,29.15,29.06,8,2,12,0.00
2013-2-6,65,51,41,34,28,22,60,43,29,29.18,29.12,6,2,9,0.00
2013-2-7,54,48,41,34,28,18,58,46,34,29.18,29.00,10,3,15,0.00
2013-2-8,62,49,40,31,24,16,58,39,29,29.00,28.94,8,3,12,0.00
2013-2-9,57,45,34,27,18,10,41,35,30,29.12,28.94,8,2,12,0.00
2013-2-10,64,50,40,30,23,17,43,35,28,29.15,29.06,5,1,9,0.00
2013-2-11,61,49,38,30,21,13,36,33,29,29.26,29.09,6,1,9,0.00
2013-2-12,66,51,43,33,23,17,35,33,28,29.38,29.26,6,1,9,0.00
2013-2-13,65,53,44,33,25,18,38,33,30,29.35,29.24,6,1,9,0.00
2013-2-14,68,55,45,36,27,21,43,34,30,29.26,29.20,6,1,11,0.00
2013-2-15,75,60,51,40,30,25,39,33,28,29.32,29.26,3,1,6,0.00
2013-2-16,70,58,50,37,28,21,34,32,28,29.29,29.06,5,1,6,0.00
2013-2-17,74,58,46,39,28,20,36,32,28,29.06,29.00,5,1,8,0.00
2013-2-18,60,50,46,31,25,21,44,37,32,29.06,28.94,14,4,17,0.00
2013-2-19,47,44,40,34,26,20,65,51,40,28.97,28.76,18,5,25,0.24
2013-2-20,65,48,36,33,25,16,62,42,28,29.06,28.82,6,1,12,0.00
2013-2-21,66,51,40,33,24,17,49,35,28,29.18,29.06,7,2,12,0.00
2013-2-22,64,51,40,33,23,15,36,33,31,29.26,29.18,8,2,11,0.00
2013-2-23,66,53,47,35,27,18,57,37,28,29.24,29.15,13,5,17,0.00
2013-2-24,68,51,38,35,22,12,34,31,28,29.26,29.18,7,2,10,0.00
2013-2-25,71,54,44,37,24,16,35,32,28,29.29,29.20,7,3,12,0.00
2013-2-26,72,55,39,38,24,14,36,31,28,29.24,29.15,8,4,15,0.00
2013-2-27,70,56,45,37,26,17,33,31,28,29.38,29.20,6,2,11,0.00
2013-2-28,78,61,50,43,30,20,32,30,28,29.44,29.35,6,2,10,0.00
2013-3-1,78,62,50,42,31,22,36,31,28,29.44,29.29,6,1,9,0.00
2013-3-2,74,63,57,39,32,27,35,31,28,29.29,29.12,3,1,8,0.00
2013-3-3,63,58,52,36,32,28,51,37,33,29.15,29.06,7,2,12,0.00
2013-3-4,66,55,48,39,34,31,60,47,33,29.18,29.06,7,2,10,0.00
2013-3-5,62,52,46,33,28,23,54,40,29,29.09,28.88,13,3,17,0.04
2013-3-6,57,50,47,37,28,21,62,42,32,29.09,28.91,20,6,28,0.55
2013-3-7,63,50,42,31,26,22,52,40,31,29.03,28.88,6,1,8,0.00
2013-3-8,68,53,43,36,28,22,51,38,28,29.06,28.82,8,2,13,0.00
2013-3-9,74,57,46,39,31,20,57,38,28,29.29,29.06,8,2,13,0.00
2013-3-10,67,55,45,34,26,18,44,33,30,29.38,29.26,8,1,10,0.00
2013-3-11,75,60,50,40,31,24,39,33,28,29.29,29.15,6,1,9,0.00
2013-3-12,83,64,53,45,33,27,36,32,26,29.20,29.12,6,1,9,0.00
2013-3-13,85,67,56,46,36,29,35,31,26,29.20,29.15,6,1,8,0.00
2013-3-14,79,68,60,43,36,30,36,31,27,29.20,29.12,6,1,8,0.00
2013-3-15,81,65,55,44,35,28,46,34,27,29.15,29.06,6,1,10,0.00
2013-3-16,82,64,52,45,34,26,46,33,27,29.12,29.03,7,1,11,0.00
2013-3-17,78,60,48,42,29,22,37,32,28,29.15,29.06,6,1,9,0.00
2013-3-18,71,60,50,37,30,23,34,32,29,29.12,29.06,6,1,8,0.00
2013-3-19,71,60,51,40,32,25,56,36,29,29.18,29.09,8,2,13,0.12
2013-3-20,63,59,56,46,42,37,63,53,41,29.15,29.09,13,2,15,0.35
2013-3-21,70,58,50,45,36,20,70,45,28,29.15,29.03,7,2,13,0.00
2013-3-22,66,51,43,34,23,18,49,34,28,29.09,29.03,10,3,15,0.00
2013-3-23,75,54,38,40,26,16,44,33,28,29.15,29.06,7,1,7,0.00
2013-3-24,80,61,50,43,30,20,34,31,27,29.12,29.00,8,2,8,0.00
2013-3-25,69,58,50,36,29,24,41,33,30,29.03,28.94,10,3,13,0.00
2013-3-26,73,58,47,39,31,24,51,37,29,29.03,28.97,9,4,9,0.00
2013-3-27,70,59,51,39,33,27,46,37,32,29.06,28.97,14,4,14,0.00
2013-3-28,78,63,56,42,36,32,51,38,28,29.15,29.06,8,2,8,0.00
2013-3-29,87,67,54,48,36,27,40,32,26,29.15,29.06,8,3,8,0.00
2013-3-30,77,64,56,41,34,29,39,33,28,29.09,29.03,13,3,13,0.00
2013-3-31,70,61,57,50,40,29,71,48,30,29.15,29.03,17,4,17,0.79
2013-4-1,71,61,55,43,37,31,59,43,29,29.18,29.09,10,2,10,0.00
2013-4-2,80,62,51,43,36,32,56,39,27,29.20,29.12,8,2,8,0.00
2013-4-3,81,65,54,44,37,31,50,37,27,29.15,29.03,8,3,8,0.00
2013-4-4,65,60,53,54,41,28,74,51,34,29.15,29.03,13,4,13,0.28
2013-4-5,68,60,55,44,38,33,61,45,32,29.20,29.12,12,4,12,0.00
2013-4-6,67,59,54,42,39,35,58,48,35,29.20,29.15,9,4,9,0.00
2013-4-7,67,58,51,42,36,30,57,45,35,29.18,28.85,18,7,18,0.00
2013-4-8,73,58,50,40,33,24,60,40,28,29.03,28.76,15,6,15,0.20
2013-4-9,78,63,50,42,31,21,31,30,28,29.12,29.00,13,7,13,0.00
2013-4-10,91,70,57,50,36,25,33,29,24,29.20,29.03,10,4,10,0.00
2013-4-11,84,67,56,46,37,29,47,33,26,29.03,28.88,9,2,9,0.00
2013-4-12,82,65,51,45,34,24,38,31,27,28.94,28.85,9,2,9,0.00
2013-4-13,77,64,52,42,33,26,39,33,28,28.91,28.85,8,2,8,0.00
2013-4-14,78,61,51,42,34,27,53,36,28,28.94,28.79,13,4,13,0.00
2013-4-15,63,53,47,37,31,25,58,44,31,28.91,28.85,16,5,16,0.04
2013-4-16,73,55,43,39,28,20,53,37,28,29.18,28.91,14,5,14,0.00
2013-4-17,75,59,46,39,28,18,32,30,28,29.24,29.18,17,7,17,0.00
2013-4-18,80,62,46,43,30,18,32,30,27,29.29,29.20,12,3,12,0.00
2013-4-19,86,68,55,47,35,26,33,30,26,29.26,29.09,9,3,9,0.00
2013-4-20,88,69,54,48,36,26,35,30,25,29.12,29.03,8,3,8,0.00
2013-4-21,93,73,58,51,38,29,32,29,24,29.06,29.00,8,3,8,0.00
2013-4-22,94,74,60,52,39,30,32,28,24,29.03,28.88,9,3,9,0.00
2013-4-23,91,71,55,50,37,24,33,28,25,28.97,28.88,8,2,8,0.00
2013-4-24,96,71,55,54,38,26,45,30,24,28.94,28.82,15,4,15,0.00
2013-4-25,75,61,52,40,35,31,54,39,28,29.15,28.94,13,6,13,0.00
2013-4-26,87,66,52,48,38,33,51,37,26,29.24,29.12,9,3,9,0.00
2013-4-27,94,71,53,52,40,30,49,33,24,29.24,29.09,8,2,8,0.00
2013-4-28,96,76,58,53,41,31,42,30,24,29.09,28.91,8,2,8,0.00
2013-4-29,96,77,63,53,42,34,33,28,24,28.94,28.79,8,2,9,0.00
2013-4-30,89,72,60,48,38,30,34,29,25,28.88,28.79,12,3,12,0.00
2013-5-1,94,74,56,52,38,25,30,28,24,29.12,28.88,10,4,10,0.00
2013-5-2,98,78,64,54,42,30,31,27,23,29.20,29.09,12,2,12,0.00
2013-5-3,98,79,64,54,42,32,31,27,23,29.12,28.82,10,3,11,0.00
2013-5-4,94,78,62,52,41,31,31,28,24,28.82,28.58,9,4,9,0.00
2013-5-5,78,64,54,42,34,27,46,33,28,28.85,28.61,13,5,13,0.00
2013-5-6,74,64,58,43,36,31,54,37,28,28.97,28.85,13,4,13,0.04
2013-5-7,72,64,59,44,38,33,56,39,29,29.06,28.97,8,3,8,0.00
2013-5-8,77,65,57,42,36,31,51,36,28,29.12,29.03,10,4,10,0.00
2013-5-9,86,66,55,47,39,33,55,38,26,29.15,29.03,13,4,13,0.00
2013-5-10,90,70,56,49,41,34,54,36,25,29.18,29.06,8,3,8,0.00
2013-5-11,97,78,60,54,44,34,45,31,23,29.12,29.03,8,2,8,0.00
2013-5-12,96,79,65,54,44,36,43,29,24,29.12,29.00,12,3,12,0.00
2013-5-13,96,77,61,53,41,31,34,28,24,29.06,28.91,10,4,10,0.00
2013-5-14,92,74,60,50,40,32,37,30,24,28.94,28.88,13,4,13,0.00
2013-5-15,80,66,55,43,34,26,35,31,27,29.00,28.94,13,6,13,0.00
2013-5-16,73,62,56,39,33,29,45,34,29,29.00,28.91,17,7,17,0.00
2013-5-17,78,62,52,42,34,26,49,36,28,29.03,28.91,12,6,12,0.00
2013-5-18,87,66,49,48,35,24,41,31,26,29.06,29.00,6,2,6,0.00
2013-5-19,89,72,57,48,38,29,35,30,25,29.06,28.91,13,3,13,0.00
2013-5-20,93,76,60,51,40,28,32,28,24,28.97,28.88,9,3,9,0.00
2013-5-21,82,68,57,44,35,28,35,30,27,28.88,28.82,17,6,17,0.00
2013-5-22,77,61,47,42,29,18,35,30,28,28.91,28.82,15,4,15,0.00
2013-5-23,81,61,47,44,31,22,39,32,27,28.91,28.82,10,4,10,0.00
2013-5-24,82,64,51,45,33,24,34,31,27,28.94,28.85,12,4,12,0.00
2013-5-25,79,63,50,43,32,23,36,32,27,28.94,28.88,10,4,10,0.00
2013-5-26,80,64,52,43,34,27,47,34,27,29.03,28.94,12,6,12,0.00
2013-5-27,65,60,53,50,33,28,70,38,31,29.03,28.94,10,6,10,0.04
2013-5-28,83,68,60,54,44,33,79,47,26,28.94,28.82,12,3,12,0.08
2013-5-29,84,68,58,45,38,32,54,34,26,28.88,28.79,13,4,13,0.00
2013-5-30,90,71,56,50,39,32,46,33,25,28.91,28.85,8,2,8,0.00
2013-5-31,96,76,32,54,40,17,53,28,24,28.91,28.85,9,2,9,0.00
2013-6-1,101,82,66,56,44,33,30,27,22,28.85,28.70,8,2,8,0.00
2013-6-2,101,82,64,56,44,32,33,27,22,28.70,28.58,8,2,8,0.00
2013-6-3,98,75,62,54,41,32,34,29,23,28.73,28.61,12,4,12,0.00
2013-6-4,85,68,57,46,38,32,47,34,26,28.85,28.73,12,6,12,0.00
2013-6-5,90,70,56,50,40,34,51,35,25,28.91,28.79,10,5,10,0.00
2013-6-6,98,75,57,54,41,30,45,31,23,28.85,28.73,12,4,12,0.00
2013-6-7,107,83,62,60,46,34,44,29,22,28.79,28.64,10,2,10,0.00
2013-6-8,111,90,72,63,49,38,31,25,22,28.67,28.58,8,3,8,0.00
2013-6-9,83,70,61,45,38,33,41,32,27,28.79,28.67,15,7,15,0.00
2013-6-10,76,64,58,40,37,33,50,37,28,28.88,28.73,14,5,14,0.00
2013-6-11,89,72,58,49,40,34,48,34,25,28.91,28.79,12,3,12,0.00
2013-6-12,89,73,60,49,39,32,36,29,25,28.88,28.82,13,5,13,0.00
2013-6-13,91,72,54,50,38,26,35,29,25,28.97,28.85,10,4,11,0.00
2013-6-14,93,75,58,51,40,28,32,28,24,28.88,28.73,9,3,9,0.00
2013-6-15,92,75,63,50,40,32,31,28,24,28.85,28.73,12,4,12,0.00
2013-6-16,96,75,58,53,40,30,34,29,24,28.94,28.85,12,4,12,0.00
2013-6-17,89,72,59,48,38,31,36,30,25,28.94,28.88,14,6,14,0.00
2013-6-18,78,65,57,42,36,29,48,35,28,28.91,28.82,15,7,15,0.00
2013-6-19,85,68,54,46,36,29,45,32,26,28.94,28.88,12,4,12,0.00
2013-6-20,89,72,55,48,38,26,35,29,25,28.88,28.82,10,2,10,0.00
2013-6-21,93,75,58,51,40,28,32,28,24,28.85,28.79,8,2,8,0.00
2013-6-22,96,78,60,53,42,30,32,28,24,28.82,28.70,12,3,12,0.00
2013-6-23,77,67,60,44,38,31,46,34,28,28.79,28.73,16,7,16,0.00
2013-6-24,69,66,64,51,46,41,57,49,37,28.85,28.70,8,2,8,0.24
2013-6-25,75,70,66,62,51,43,79,52,36,28.91,28.82,12,2,12,0.20
2013-6-26,90,76,66,55,48,39,62,39,25,28.97,28.88,13,3,13,0.00
2013-6-27,99,81,66,55,48,40,52,32,23,28.97,28.91,9,2,9,0.00
2013-6-28,107,87,71,60,49,39,42,27,22,28.91,28.79,9,2,9,0.00
2013-6-29,110,91,75,62,50,40,30,25,22,28.82,28.70,8,3,8,0.00
2013-6-30,110,91,73,62,50,39,31,25,22,28.73,28.64,8,2,8,0.00
2013-7-1,109,91,72,62,50,39,31,25,22,28.73,28.67,7,2,7,0.00
2013-7-2,106,90,77,59,49,42,30,25,22,28.79,28.67,4,2,3,0.00
2013-7-3,108,87,71,61,48,37,29,26,22,28.79,28.64,3,2,3,0.00
2013-7-4,111,92,76,64,51,42,33,26,22,28.64,28.53,3,3,3,0.00
2013-7-5,92,79,67,50,42,34,30,27,24,28.64,28.56,3,3,3,0.00
2013-7-6,78,65,60,42,37,34,44,36,28,28.67,28.58,3,3,3,0.00
2013-7-7,98,87,71,54,47,37,35,26,23,28.70,28.64,5,0,8,0.00
2013-7-8,98,78,61,54,42,30,34,28,23,28.82,28.70,10,3,14,0.00
2013-7-9,107,85,65,60,46,34,33,26,22,28.88,28.79,8,2,8,0.00
2013-7-10,101,83,68,56,45,35,30,26,22,28.79,28.70,10,4,13,0.00
2013-7-11,94,76,59,52,41,30,34,28,24,28.76,28.67,13,5,13,0.00
2013-7-12,93,74,57,51,41,32,46,31,24,28.76,28.70,13,3,13,0.00
2013-7-13,98,80,62,54,43,31,34,27,23,28.79,28.73,12,3,12,0.00
2013-7-14,101,80,63,56,43,33,33,28,22,28.79,28.70,10,3,10,0.00
2013-7-15,91,73,58,50,39,31,37,30,24,28.73,28.61,13,5,13,0.00
2013-7-16,84,67,57,45,39,33,55,37,26,28.82,28.67,13,5,13,0.00
2013-7-17,96,74,58,53,43,36,54,35,24,28.88,28.79,8,3,8,0.00
2013-7-18,102,80,61,56,44,32,37,28,22,28.85,28.70,10,2,10,0.00
2013-7-19,104,88,64,58,48,32,35,25,22,28.73,28.61,10,3,10,0.04
2013-7-20,105,84,64,58,45,32,33,27,22,28.64,28.53,10,3,10,0.00
2013-7-21,97,80,66,54,43,34,32,27,23,28.67,28.56,13,4,13,0.00
2013-7-22,97,78,65,54,42,35,35,28,23,28.76,28.67,16,3,16,0.00
2013-7-23,95,79,68,52,42,36,30,27,24,28.79,28.67,12,4,12,0.00
2013-7-24,102,83,65,56,44,33,30,26,22,28.73,28.64,12,4,12,0.00
2013-7-25,102,84,68,56,46,37,32,27,22,28.73,28.67,12,4,12,0.00
2013-7-26,99,80,66,55,43,34,33,27,23,28.79,28.67,10,5,11,0.00
2013-7-27,95,77,61,52,42,34,39,29,24,28.70,28.56,10,5,10,0.00
2013-7-28,94,76,61,52,41,33,39,29,24,28.58,28.47,10,4,10,0.00
2013-7-29,87,69,57,48,39,33,47,34,26,28.70,28.53,12,4,12,0.00
2013-7-30,95,73,57,52,41,33,47,33,24,28.79,28.67,9,3,9,0.00
2013-7-31,92,73,58,50,39,31,39,30,24,28.73,28.61,9,5,12,0.00
2013-8-1,91,72,58,50,38,30,37,30,25,28.70,28.61,13,5,13,0.00
2013-8-2,97,76,58,54,41,30,39,29,23,28.61,28.53,9,3,9,0.00
2013-8-3,95,76,60,53,41,30,34,28,24,28.61,28.53,9,3,9,0.00
2013-8-4,93,74,58,51,40,32,44,30,24,28.61,28.56,9,4,9,0.00
2013-8-5,96,73,57,54,42,33,54,33,24,28.64,28.53,10,4,10,0.00
2013-8-6,90,70,57,50,39,31,49,33,25,28.64,28.56,13,5,13,0.00
2013-8-7,81,67,59,44,40,35,56,39,27,28.70,28.61,12,6,12,0.00
2013-8-8,88,70,59,48,41,33,55,37,25,28.64,28.50,12,4,12,0.00
2013-8-9,86,69,57,47,40,31,56,35,26,28.58,28.50,13,4,13,0.00
2013-8-10,91,71,59,50,41,34,55,36,25,28.61,28.53,12,4,12,0.00
2013-8-11,94,74,59,52,42,36,47,33,24,28.58,28.50,9,3,9,0.00
2013-8-12,94,76,60,52,41,32,36,29,24,28.56,28.50,12,4,12,0.00
2013-8-13,100,80,61,56,43,30,31,27,23,28.58,28.47,10,2,10,0.00
2013-8-14,101,80,62,56,42,31,31,27,22,28.53,28.44,10,3,10,0.00
2013-8-15,98,78,64,54,43,34,36,28,23,28.53,28.47,12,4,12,0.00
2013-8-16,100,81,66,56,45,36,38,29,23,28.56,28.47,12,4,12,0.00
2013-8-17,100,80,66,56,44,34,32,28,23,28.53,28.38,15,3,15,0.00
2013-8-18,102,83,66,56,47,39,42,29,22,28.44,28.32,6,2,6,0.00
2013-8-19,106,88,77,60,49,42,30,27,22,28.44,28.29,13,2,13,0.00
2013-8-20,101,81,68,56,45,38,37,29,22,28.38,17.72,12,5,12,0.00
2013-8-21,95,76,63,52,42,34,38,30,24,28.32,17.72,12,5,12,0.00
2013-8-22,89,72,61,49,41,37,41,33,25,28.32,28.32,10,5,10,0.00
2013-8-23,94,72,57,52,41,35,49,34,24,28.32,17.72,9,4,9,0.00
2013-8-24,88,73,61,48,40,32,35,30,25,28.32,28.32,15,6,15,0.00
2013-8-25,90,74,63,49,44,36,54,36,25,28.32,17.72,12,5,12,0.00
2013-8-26,92,74,62,50,44,34,54,36,24,28.32,17.72,13,4,13,0.00
2013-8-27,97,77,63,54,41,32,33,28,23,28.32,28.32,12,3,12,0.00
2013-8-28,95,77,63,53,42,33,36,29,24,28.97,28.32,10,4,10,0.00
2013-8-29,97,77,62,54,44,36,44,31,23,29.09,28.97,10,4,10,0.00
2013-8-30,101,80,64,55,44,34,35,28,22,29.09,28.97,8,2,8,0.00
2013-8-31,98,80,67,54,43,35,30,27,23,29.00,28.94,12,4,12,0.00
2013-9-1,92,77,66,50,41,33,30,28,24,29.00,28.91,13,5,13,0.00
2013-9-2,78,71,67,54,43,37,52,37,29,29.03,28.94,9,2,9,0.08
2013-9-3,88,73,64,48,42,33,46,34,25,29.03,28.97,12,4,12,0.00
2013-9-4,91,73,62,50,41,33,44,32,24,29.06,28.97,10,5,10,0.00
2013-9-5,89,72,60,48,40,32,44,31,25,29.06,28.97,10,4,11,0.00
2013-9-6,98,77,59,54,41,29,36,28,23,29.03,28.88,6,1,6,0.00
2013-9-7,101,83,69,56,45,36,30,26,22,28.97,28.85,9,2,9,0.00
2013-9-8,102,84,68,56,45,35,30,26,22,28.91,28.82,8,2,8,0.00
2013-9-9,103,85,69,57,46,36,30,26,22,28.85,28.73,9,2,9,0.00
2013-9-10,91,76,64,50,41,34,44,29,25,28.94,28.76,10,4,11,0.00
2013-9-11,85,70,62,46,42,37,54,39,26,29.03,28.94,12,5,12,0.00
2013-9-12,92,74,62,50,45,38,55,37,24,29.03,28.91,8,4,8,0.00
2013-9-13,94,76,63,52,43,36,46,32,24,28.94,28.76,9,3,9,0.00
2013-9-14,91,74,61,50,40,33,39,30,25,28.85,28.76,10,4,10,0.00
2013-9-15,89,71,58,49,38,30,39,31,25,28.91,28.79,10,5,10,0.00
2013-9-16,91,73,61,50,42,33,47,33,25,28.94,28.82,12,4,12,0.00
2013-9-17,85,69,58,46,38,32,47,32,26,28.94,28.85,15,4,15,0.00
2013-9-18,91,71,57,50,37,27,35,29,25,28.94,28.85,8,2,8,0.00
2013-9-19,94,75,61,52,40,30,31,28,24,28.91,28.79,9,2,9,0.00
2013-9-20,83,71,63,45,39,32,44,31,27,28.94,28.79,13,5,13,0.00
2013-9-21,69,63,59,52,42,34,68,47,32,28.94,28.88,21,3,21,0.39
2013-9-22,79,65,56,43,38,32,55,39,27,29.03,28.94,6,2,6,0.00
2013-9-23,88,69,56,48,38,30,42,32,25,29.06,28.97,9,2,9,0.00
2013-9-24,80,68,59,43,37,31,44,32,27,29.03,28.91,16,6,16,0.00
2013-9-25,80,64,55,43,35,28,48,35,27,28.94,28.85,10,3,11,0.00
2013-9-26,80,64,52,43,32,22,33,30,27,29.00,28.82,12,5,12,0.00
2013-9-27,85,66,52,46,33,23,34,29,26,29.12,29.00,9,2,9,0.00
2013-9-28,86,70,58,47,36,27,32,29,26,29.15,29.06,10,4,10,0.00
2013-9-29,79,67,58,43,36,29,47,33,28,29.18,29.09,14,6,14,0.00
2013-9-30,79,68,63,47,42,38,52,39,27,29.15,29.00,10,3,10,0.00
2013-10-1,82,67,56,48,38,29,57,36,27,29.06,28.97,9,3,11,0.00
2013-10-2,84,67,57,46,35,29,40,31,26,29.03,28.97,9,2,9,0.00
2013-10-3,81,65,49,43,33,22,34,30,27,29.06,28.94,15,5,15,0.00
2013-10-4,89,69,56,49,35,25,32,28,25,29.15,29.03,9,2,9,0.00
2013-10-5,88,70,58,48,36,26,31,28,26,29.26,29.15,8,2,8,0.00
2013-10-6,89,72,60,48,37,28,31,28,25,29.18,29.06,8,2,8,0.00
2013-10-7,89,72,61,49,37,29,31,28,25,29.06,28.94,9,2,9,0.00
2013-10-8,79,66,56,43,33,25,32,29,27,28.94,28.73,8,2,8,0.00
2013-10-9,77,62,52,41,31,24,33,31,28,28.82,28.64,9,3,9,0.00
2013-10-10,74,62,54,39,31,25,33,31,28,29.06,28.79,13,4,13,0.00
2013-10-11,80,65,53,43,33,25,33,30,27,29.12,29.00,9,3,9,0.00
2013-10-12,77,64,54,42,32,25,33,31,28,29.06,28.91,12,3,12,0.00
2013-10-13,81,64,51,44,32,24,39,31,27,29.09,28.94,8,2,8,0.00
2013-10-14,82,65,52,45,33,23,34,30,27,29.18,29.06,8,2,8,0.00
2013-10-15,86,68,55,47,34,26,32,29,26,29.09,29.00,8,2,8,0.00
2013-10-16,84,69,58,46,35,26,31,29,26,29.18,29.06,12,3,12,0.00
2013-10-17,87,69,58,48,35,26,32,29,26,29.12,29.03,6,2,6,0.00
2013-10-18,86,69,58,47,35,26,32,29,26,29.12,29.03,8,2,8,0.00
2013-10-19,89,71,59,48,37,27,32,29,25,29.15,29.06,8,2,8,0.00
2013-10-20,88,70,59,48,36,27,32,29,26,29.06,28.97,9,2,9,0.00
2013-10-21,88,71,59,48,37,29,32,29,26,29.06,28.97,7,2,7,0.00
2013-10-22,89,72,60,49,37,27,31,29,25,29.06,28.97,7,1,7,0.00
2013-10-23,88,71,59,48,36,27,32,28,25,29.00,28.94,8,1,8,0.00
2013-10-24,75,62,51,40,31,24,35,31,28,29.12,28.97,8,2,8,0.00
2013-10-25,82,64,49,45,33,24,44,32,27,29.20,29.12,6,2,6,0.00
2013-10-26,85,68,57,46,35,28,32,30,26,29.20,29.06,6,2,6,0.00
2013-10-27,75,62,53,40,31,25,38,32,28,29.06,28.67,20,8,20,0.00
2013-10-28,61,55,49,36,30,25,57,39,31,28.91,28.67,12,6,12,0.00
2013-10-29,66,57,51,34,28,24,36,33,30,29.09,28.91,10,4,10,0.00
2013-10-30,72,57,47,38,28,20,37,33,29,29.18,29.06,8,3,8,0.00
2013-10-31,71,59,49,37,29,21,36,32,29,29.20,29.12,9,2,9,0.00
2013-11-1,80,64,54,43,32,26,33,31,27,29.20,29.09,8,2,8,0.00
2013-11-2,76,64,56,41,32,25,34,30,28,29.09,28.94,8,2,8,0.00
2013-11-3,66,55,46,34,25,19,35,31,28,29.06,28.94,9,3,9,0.00
2013-11-4,72,56,41,38,26,16,36,31,28,29.09,28.91,9,3,9,0.00
2013-11-5,69,57,45,36,26,17,34,30,28,29.26,29.09,9,2,9,0.00
2013-11-6,76,62,51,40,30,22,34,30,28,29.32,29.24,8,2,8,0.00
2013-11-7,77,64,56,42,31,25,32,29,28,29.24,29.12,8,2,8,0.00
2013-11-8,78,64,54,42,32,24,32,30,28,29.12,29.03,6,1,8,0.00
2013-11-9,77,64,54,42,32,26,33,31,28,29.09,29.03,8,2,6,0.00
2013-11-10,76,63,55,40,32,25,33,30,28,29.15,29.09,7,2,7,0.00
2013-11-11,74,61,48,39,30,20,34,30,28,29.24,29.12,8,1,8,0.00
2013-11-12,75,63,58,40,31,26,32,30,28,29.29,29.18,10,1,11,0.00
2013-11-13,79,64,54,43,32,25,33,31,27,29.26,29.12,8,1,8,0.00
2013-11-14,69,60,52,36,30,26,39,32,30,29.15,28.88,7,2,7,0.00
2013-11-15,70,56,47,37,28,20,48,34,28,28.88,28.76,8,1,8,0.00
2013-11-16,64,54,47,32,25,20,34,33,28,28.97,28.79,10,2,10,0.00
2013-11-17,66,54,47,33,27,20,39,34,30,29.12,28.97,8,2,8,0.00
2013-11-18,66,55,50,33,27,24,44,35,30,29.18,29.12,12,3,12,0.00
2013-11-19,62,56,51,43,34,30,58,44,34,29.15,29.00,9,1,9,0.35
2013-11-20,58,57,55,56,50,42,93,78,56,29.03,28.88,12,4,12,0.39
2013-11-21,68,56,50,51,36,21,85,53,28,29.03,28.91,20,4,20,0.04
2013-11-22,71,58,48,37,28,19,57,33,28,29.09,28.97,20,6,20,0.00
2013-11-23,64,54,48,37,30,22,58,42,31,29.15,29.03,8,1,8,0.00
2013-11-24,66,54,46,34,26,21,41,35,30,29.26,29.15,6,2,6,0.00
2013-11-25,67,54,47,34,26,22,42,34,30,29.35,29.26,6,1,6,0.00
2013-11-26,66,54,48,33,27,23,44,35,30,29.29,29.09,6,1,6,0.00
2013-11-27,70,57,50,37,28,24,41,34,29,29.09,28.91,6,1,6,0.00
2013-11-28,72,60,53,38,29,23,33,31,29,29.12,28.91,8,3,8,0.00
2013-11-29,74,59,51,39,29,24,34,32,28,29.26,29.12,8,3,8,0.00
2013-11-30,71,58,51,37,28,24,34,32,29,29.29,29.24,6,1,6,0.00
2013-12-1,68,57,50,36,28,22,36,32,30,29.38,29.26,6,2,6,0.00
2013-12-2,68,56,51,36,29,24,51,36,30,29.26,28.97,15,4,15,0.00
2013-12-3,57,50,37,45,26,11,63,40,29,28.97,28.85,17,6,17,0.00
2013-12-4,50,39,30,21,13,5,38,34,31,29.09,28.91,8,2,8,0.00
2013-12-5,51,39,30,22,13,7,38,34,31,29.18,29.06,8,1,8,0.00
2013-12-6,47,40,33,29,15,9,61,38,32,29.20,28.97,17,6,17,0.20
2013-12-7,46,40,33,32,22,11,72,49,35,29.24,28.94,17,5,17,0.08
2013-12-8,47,36,28,19,12,6,43,37,32,29.32,29.20,8,2,8,0.00
2013-12-9,49,38,29,20,15,10,52,39,31,29.44,29.29,8,2,8,0.00
2013-12-10,53,42,33,23,16,10,38,34,31,29.44,29.24,6,2,6,0.00
2013-12-11,61,47,36,30,20,13,39,34,29,29.29,29.24,8,1,8,0.00
2013-12-12,63,49,38,32,21,14,36,33,28,29.29,29.20,8,1,8,0.00
2013-12-13,63,49,39,30,21,13,36,33,28,29.35,29.24,6,1,6,0.00
2013-12-14,64,51,42,33,23,17,37,33,28,29.44,29.35,8,2,8,0.00
2013-12-15,63,51,42,32,24,17,38,34,29,29.41,29.29,6,1,6,0.00
2013-12-16,65,53,44,33,26,20,40,35,30,29.29,29.20,8,1,8,0.00
2013-12-17,68,56,48,36,29,24,41,36,30,29.24,29.09,5,0,4,0.00
2013-12-18,63,54,48,33,30,26,53,40,31,29.09,28.76,8,2,8,0.00
2013-12-19,63,51,42,35,27,14,56,40,28,28.94,28.73,13,3,13,0.00
2013-12-20,58,46,34,26,19,11,40,34,29,29.06,28.91,6,1,6,0.00
2013-12-21,62,50,42,31,24,19,46,36,29,29.15,29.00,7,0,7,0.00
2013-12-22,64,52,44,33,25,20,40,36,31,29.32,29.15,6,1,6,0.00
2013-12-23,68,55,47,35,28,22,39,35,30,29.44,29.32,6,1,6,0.00
2013-12-24,65,54,46,33,27,22,42,36,30,29.35,29.26,6,1,6,0.00
2013-12-25,69,56,46,36,28,22,41,35,30,29.35,29.26,5,1,5,0.00
2013-12-26,68,56,48,36,26,19,34,32,28,29.32,29.24,8,1,8,0.00
2013-12-27,64,53,46,33,25,20,37,33,29,29.29,29.15,6,1,6,0.00
2013-12-28,67,54,43,35,24,16,40,32,28,29.15,29.06,8,2,8,0.00
2013-12-29,66,53,45,33,25,19,37,33,28,29.24,29.12,6,1,6,0.00
2013-12-30,66,54,46,33,25,18,35,32,28,29.29,29.20,6,1,6,0.00
2013-12-31,68,54,48,35,25,20,34,33,28,29.29,29.20,6,1,6,0.00
2014-1-1,65,53,46,33,24,20,35,32,28,29.26,29.18,8,1,8,0.00
2014-1-2,69,56,47,36,27,21,37,33,30,29.24,29.12,8,1,8,0.00